Time,TemperatureF,DewpointF,PressureIn,WindDirection,WindDirectionDegrees,WindSpeedMPH,WindSpeedGustMPH,Humidity,HourlyPrecipIn,Conditions,Clouds,dailyrainin,SoftwareType,DateUTC
2013-07-15 07:43:00,69.0,46.0,-100.00,North,0,2.0,4.0,44,-99.99,,,-99.99,,2013-07-15 13:43:00,
2013-07-15 08:11:00,72.0,45.0,-100.00,NE,45,3.0,5.0,37,-99.99,,,-99.99,,2013-07-15 14:11:00,
2013-07-15 08:33:00,73.0,44.0,-100.00,NNE,30,3.0,7.0,35,-99.99,,,-99.99,,2013-07-15 14:33:00,
2013-07-15 08:42:00,72.0,46.0,-100.00,ESE,120,7.0,9.0,38,-99.99,,,-99.99,,2013-07-15 14:42:00,
2013-07-15 09:15:00,74.0,45.0,-100.00,ESE,105,5.0,8.0,35,-99.99,,,-99.99,,2013-07-15 15:15:00,
2013-07-15 09:45:00,75.0,45.0,-100.00,ESE,105,6.0,7.0,33,-99.99,,,-99.99,,2013-07-15 15:45:00,
2013-07-15 11:03:00,83.0,41.0,-100.00,NE,45,7.0,11.0,23,-99.99,,,-99.99,,2013-07-15 17:03:00,
2013-07-15 12:14:00,85.0,41.0,-100.00,South,170,4.0,9.0,21,-99.99,,,-99.99,,2013-07-15 18:14:00,
2013-07-15 12:45:00,84.0,38.0,-100.00,SSE,160,6.0,11.0,19,-99.99,,,-99.99,,2013-07-15 18:45:00,
2013-07-15 13:45:00,87.0,33.0,-100.00,NNE,20,15.0,21.0,15,-99.99,,,-99.99,,2013-07-15 19:45:00,
2013-07-15 14:43:00,89.0,32.0,-100.00,North,0,4.0,9.0,13,-99.99,,,-99.99,,2013-07-15 20:43:00,
2013-07-15 14:54:00,89.0,31.0,-100.00,NE,45,7.0,12.0,12,-99.99,,,-99.99,,2013-07-15 20:54:00,
2013-07-15 15:12:00,88.0,30.0,-100.00,North,0,11.0,20.0,12,-99.99,,,-99.99,,2013-07-15 21:12:00,
2013-07-15 15:46:00,91.0,28.0,-100.00,North,0,9.0,14.0,10,-99.99,,,-99.99,,2013-07-15 21:46:00,
2013-07-15 16:02:00,95.0,30.0,-100.00,NE,50,5.0,7.0,9,-99.99,,,-99.99,,2013-07-15 22:02:00,
2013-07-15 16:43:00,88.0,27.0,-100.00,NNE,20,14.0,21.0,10,-99.99,,,-99.99,,2013-07-15 22:43:00,
2013-07-15 17:13:00,90.0,31.0,-100.00,NNE,25,19.0,29.0,12,-99.99,,,-99.99,,2013-07-15 23:13:00,
2013-07-15 17:45:00,87.0,29.0,-100.00,NE,35,7.0,16.0,12,-99.99,,,-99.99,,2013-07-15 23:45:00,
2013-07-15 17:53:00,87.0,29.0,-100.00,SE,140,3.0,17.0,12,-99.99,,,-99.99,,2013-07-15 23:53:00,
2013-07-15 18:03:00,88.0,31.0,-100.00,ENE,75,11.0,14.0,13,-99.99,,,-99.99,,2013-07-16 00:03:00,
2013-07-15 18:45:00,85.0,30.0,-100.00,East,95,12.0,16.0,13,-99.99,,,-99.99,,2013-07-16 00:45:00,
2013-07-15 19:05:00,85.0,30.0,-100.00,East,95,12.0,16.0,13,-99.99,,,-99.99,,2013-07-16 01:05:00,
2013-07-15 19:46:00,82.0,29.0,-100.00,ESE,105,7.0,8.0,14,-99.99,,,-99.99,,2013-07-16 01:46:00,
2013-07-15 20:46:00,81.0,31.0,-100.00,SE,135,3.0,6.0,16,-99.99,,,-99.99,,2013-07-16 02:46:00,